Time;durP1;ratioP1;P1;durP2;ratioP2;P2;SDS_P1;SDS_P2;PMS_P1;PMS_P2;Temp;Humidity;BMP_temperature;BMP_pressure;BME280_temperature;BME280_humidity;BME280_pressure;Samples;Min_cycle;Max_cycle;Signal;HPM_P1;HPM_P2
2022/05/07 00:01:56;;;;;;;6.15;4.55;;;;;;;;;;5073212;28;20119;-49
2022/05/07 00:04:21;;;;;;;8.55;4.30;;;;;;;;;;5073387;28;20031;-48
2022/05/07 00:06:47;;;;;;;11.23;4.60;;;;;;;;;;5073213;28;20368;-50
2022/05/07 00:09:12;;;;;;;9.23;4.40;;;;;;;;;;5073380;28;20024;-49
2022/05/07 00:11:38;;;;;;;7.85;4.75;;;;;;;;;;5073207;28;20387;-49
2022/05/07 00:14:03;;;;;;;6.20;4.78;;;;;;;;;;5073290;28;20040;-57
2022/05/07 00:19:13;;;;;;;9.43;5.50;;;;;;;;;;5073241;28;20031;-49
2022/05/07 00:21:38;;;;;;;6.38;4.63;;;;;;;;;;5073124;28;20024;-50
2022/05/07 00:24:04;;;;;;;6.82;5.00;;;;;;;;;;5073153;28;20442;-55
2022/05/07 00:26:29;;;;;;;7.43;4.88;;;;;;;;;;5072655;28;20024;-57
2022/05/07 00:28:55;;;;;;;7.72;4.57;;;;;;;;;;5072786;28;20054;-59
2022/05/07 00:31:21;;;;;;;8.05;4.25;;;;;;;;;;5072678;28;20032;-56
2022/05/07 00:33:46;;;;;;;8.82;4.40;;;;;;;;;;5072754;28;20029;-59
2022/05/07 00:36:11;;;;;;;5.50;4.50;;;;;;;;;;5072897;28;20432;-51
2022/05/07 00:38:37;;;;;;;6.20;4.93;;;;;;;;;;5072688;28;20029;-60
2022/05/07 00:41:02;;;;;;;6.35;4.65;;;;;;;;;;5072954;28;20031;-55
2022/05/07 00:43:35;;;;;;;7.95;4.97;;;;;;;;;;5072899;28;20028;-56
2022/05/07 00:46:01;;;;;;;9.70;5.00;;;;;;;;;;5072845;28;20031;-57
2022/05/07 00:48:27;;;;;;;8.48;4.97;;;;;;;;;;5054983;28;20017;-56
2022/05/07 00:53:37;;;;;;;10.75;5.85;;;;;;;;;;5072555;28;20055;-58
2022/05/07 00:56:03;;;;;;;11.98;5.78;;;;;;;;;;5072261;28;20403;-57
2022/05/07 00:58:29;;;;;;;13.20;5.88;;;;;;;;;;5071530;28;20109;-61
2022/05/07 01:00:54;;;;;;;8.60;5.70;;;;;;;;;;5072709;28;20064;-59
2022/05/07 01:03:20;;;;;;;8.95;5.65;;;;;;;;;;5072618;28;20067;-62
2022/05/07 01:05:45;;;;;;;8.88;5.00;;;;;;;;;;5072291;28;20086;-62
2022/05/07 01:08:12;;;;;;;6.88;5.25;;;;;;;;;;5072269;28;20063;-57
2022/05/07 01:10:38;;;;;;;8.77;4.90;;;;;;;;;;5072235;28;20533;-53
2022/05/07 01:13:04;;;;;;;5.82;4.28;;;;;;;;;;5072359;28;20063;-52
2022/05/07 01:15:30;;;;;;;5.50;4.13;;;;;;;;;;5072469;28;20420;-48
2022/05/07 01:17:56;;;;;;;12.25;5.28;;;;;;;;;;5072408;28;20423;-56
2022/05/07 01:20:22;;;;;;;6.32;4.45;;;;;;;;;;5072363;28;20025;-56
2022/05/07 01:22:47;;;;;;;9.60;4.55;;;;;;;;;;5072132;28;20395;-55
2022/05/07 01:25:13;;;;;;;5.13;4.07;;;;;;;;;;5072232;28;20028;-49
2022/05/07 01:27:38;;;;;;;8.52;4.25;;;;;;;;;;5057477;28;20029;-50
2022/05/07 01:30:04;;;;;;;5.40;3.65;;;;;;;;;;5076414;28;20063;-51
2022/05/07 01:32:30;;;;;;;11.98;2.80;;;;;;;;;;5076013;28;20028;-53
2022/05/07 01:34:55;;;;;;;7.90;4.88;;;;;;;;;;5076324;28;20035;-51
2022/05/07 01:37:21;;;;;;;19.55;4.68;;;;;;;;;;5076028;28;20020;-48
2022/05/07 01:39:46;;;;;;;5.25;4.60;;;;;;;;;;5075964;28;20027;-48
2022/05/07 01:42:12;;;;;;;9.25;4.53;;;;;;;;;;5076203;28;20054;-49
2022/05/07 01:44:38;;;;;;;9.38;4.93;;;;;;;;;;5076143;28;20384;-49
2022/05/07 01:49:47;;;;;;;6.65;5.18;;;;;;;;;;5075858;28;20540;-49
2022/05/07 01:52:14;;;;;;;8.32;4.20;;;;;;;;;;5075918;28;20115;-48
2022/05/07 01:54:39;;;;;;;8.27;5.05;;;;;;;;;;5075638;28;20029;-48
2022/05/07 01:57:05;;;;;;;8.77;5.10;;;;;;;;;;5075716;28;20045;-49
2022/05/07 01:59:30;;;;;;;6.03;4.55;;;;;;;;;;5075575;28;20027;-50
2022/05/07 02:01:56;;;;;;;9.60;5.47;;;;;;;;;;5075795;28;20025;-56
2022/05/07 02:04:22;;;;;;;9.23;5.45;;;;;;;;;;5075748;28;20463;-48
2022/05/07 02:06:47;;;;;;;6.15;4.97;;;;;;;;;;5075476;28;20100;-49
2022/05/07 02:09:13;;;;;;;7.70;5.32;;;;;;;;;;5075402;28;20025;-48
2022/05/07 02:11:39;;;;;;;7.60;5.05;;;;;;;;;;5075528;28;20060;-48
2022/05/07 02:14:04;;;;;;;10.23;5.50;;;;;;;;;;5075592;28;20059;-48
2022/05/07 02:16:33;;;;;;;11.30;5.22;;;;;;;;;;5075295;28;20090;-47
2022/05/07 02:18:59;;;;;;;6.80;5.45;;;;;;;;;;5075183;28;20391;-48
2022/05/07 02:21:24;;;;;;;9.25;5.22;;;;;;;;;;5075437;28;20024;-47
2022/05/07 02:23:49;;;;;;;7.90;5.45;;;;;;;;;;5075389;28;20020;-48
2022/05/07 02:26:15;;;;;;;6.85;4.97;;;;;;;;;;5075101;28;20488;-47
2022/05/07 02:28:40;;;;;;;6.70;5.00;;;;;;;;;;5075026;28;20036;-48
2022/05/07 02:31:06;;;;;;;8.57;5.60;;;;;;;;;;5075195;28;20025;-48
2022/05/07 02:33:31;;;;;;;8.05;4.88;;;;;;;;;;5074923;28;20059;-49
2022/05/07 02:35:57;;;;;;;8.27;6.28;;;;;;;;;;5074928;28;20134;-47
2022/05/07 02:38:22;;;;;;;6.35;4.95;;;;;;;;;;5074384;28;20024;-47
2022/05/07 02:43:31;;;;;;;10.38;5.15;;;;;;;;;;5074780;28;20109;-48
2022/05/07 02:45:57;;;;;;;7.25;5.32;;;;;;;;;;5074986;28;20447;-48
2022/05/07 02:48:22;;;;;;;8.93;5.65;;;;;;;;;;5074877;28;20385;-48
2022/05/07 02:50:48;;;;;;;7.97;4.90;;;;;;;;;;5074458;28;20029;-48
2022/05/07 02:53:13;;;;;;;8.13;6.13;;;;;;;;;;5074880;28;20032;-49
2022/05/07 02:55:39;;;;;;;8.32;5.35;;;;;;;;;;5074779;28;20391;-48
2022/05/07 02:58:06;;;;;;;3.97;2.65;;;;;;;;;;5074358;28;20461;-48
2022/05/07 03:00:32;;;;;;;7.90;5.68;;;;;;;;;;5074492;28;20052;-55
2022/05/07 03:02:57;;;;;;;6.30;4.50;;;;;;;;;;5074483;28;20060;-50
2022/05/07 03:05:23;;;;;;;8.55;5.70;;;;;;;;;;5074349;28;20104;-50
2022/05/07 03:07:49;;;;;;;7.90;5.10;;;;;;;;;;5074573;28;20039;-52
2022/05/07 03:10:15;;;;;;;9.18;4.93;;;;;;;;;;5074530;28;20020;-48
2022/05/07 03:12:40;;;;;;;6.57;4.75;;;;;;;;;;5039976;28;20031;-50
2022/05/07 03:15:06;;;;;;;8.52;5.80;;;;;;;;;;5074450;28;20024;-49
2022/05/07 03:17:34;;;;;;;11.73;5.88;;;;;;;;;;5074416;28;20028;-48
2022/05/07 03:20:00;;;;;;;7.47;5.75;;;;;;;;;;5074053;28;20032;-48
2022/05/07 03:22:26;;;;;;;8.40;6.55;;;;;;;;;;5074286;28;20071;-52
2022/05/07 03:24:51;;;;;;;8.82;6.22;;;;;;;;;;5056467;28;20476;-52
2022/05/07 03:27:16;;;;;;;10.02;6.90;;;;;;;;;;5073938;28;20067;-48
2022/05/07 03:29:42;;;;;;;9.98;6.57;;;;;;;;;;5074120;28;20020;-48
2022/05/07 03:32:08;;;;;;;8.40;6.63;;;;;;;;;;5073968;28;20081;-49
2022/05/07 03:34:33;;;;;;;10.82;6.07;;;;;;;;;;5074091;28;20025;-48
2022/05/07 03:36:59;;;;;;;8.43;6.93;;;;;;;;;;5073696;28;20040;-48
2022/05/07 03:39:26;;;;;;;10.45;6.78;;;;;;;;;;5073718;28;20158;-49
2022/05/07 03:41:51;;;;;;;12.52;6.50;;;;;;;;;;5073894;28;20023;-49
2022/05/07 03:44:16;;;;;;;8.50;7.25;;;;;;;;;;5073841;28;20107;-53
2022/05/07 03:46:42;;;;;;;11.60;7.03;;;;;;;;;;5073764;28;20486;-50
2022/05/07 03:49:07;;;;;;;6.50;5.28;;;;;;;;;;5073306;28;20103;-49
2022/05/07 03:53:29;;;;;;;8.85;5.78;;;;;;;;;;5072799;28;20119;-47
2022/05/07 03:54:18;;;;;;;3.80;3.10;;;;;;;;;;5073324;28;20047;-48
2022/05/07 03:56:45;;;;;;;10.00;5.15;;;;;;;;;;5073386;28;20028;-48
2022/05/07 03:59:11;;;;;;;9.88;5.18;;;;;;;;;;5073619;28;20024;-50
2022/05/07 04:01:36;;;;;;;12.40;6.18;;;;;;;;;;5073501;28;20070;-49
2022/05/07 04:04:01;;;;;;;9.63;6.88;;;;;;;;;;5055450;28;20395;-49
2022/05/07 04:06:28;;;;;;;12.23;6.10;;;;;;;;;;5073532;28;20033;-49
2022/05/07 04:08:53;;;;;;;12.57;6.20;;;;;;;;;;5073346;28;20036;-53
2022/05/07 04:11:19;;;;;;;8.30;6.53;;;;;;;;;;5073239;28;20033;-48
2022/05/07 04:13:44;;;;;;;11.10;6.25;;;;;;;;;;5073253;28;20029;-48
2022/05/07 04:16:10;;;;;;;7.43;4.97;;;;;;;;;;5073220;28;20024;-60
2022/05/07 04:18:35;;;;;;;8.23;5.30;;;;;;;;;;5072926;28;20024;-55
2022/05/07 04:21:01;;;;;;;8.32;6.13;;;;;;;;;;5073214;28;20028;-55
2022/05/07 04:23:26;;;;;;;4.90;4.40;;;;;;;;;;5072960;28;20464;-55
2022/05/07 04:25:52;;;;;;;3.55;2.90;;;;;;;;;;5072824;28;20028;-53
2022/05/07 04:28:17;;;;;;;3.78;3.10;;;;;;;;;;5073026;28;20036;-55
2022/05/07 04:30:43;;;;;;;6.45;4.15;;;;;;;;;;5072800;28;20032;-54
2022/05/07 04:33:08;;;;;;;5.10;4.22;;;;;;;;;;5072650;28;20472;-55
2022/05/07 04:35:34;;;;;;;4.40;3.53;;;;;;;;;;5072915;28;20056;-54
2022/05/07 04:37:59;;;;;;;4.07;3.33;;;;;;;;;;5072684;28;20379;-52
2022/05/07 04:40:25;;;;;;;5.63;4.72;;;;;;;;;;5072623;28;20537;-51
2022/05/07 04:42:51;;;;;;;11.23;4.72;;;;;;;;;;5072554;28;20124;-50
2022/05/07 04:45:16;;;;;;;4.78;3.88;;;;;;;;;;5072798;28;20052;-53
2022/05/07 04:47:42;;;;;;;5.65;4.05;;;;;;;;;;5072752;28;20349;-56
2022/05/07 04:50:08;;;;;;;3.83;2.97;;;;;;;;;;5072512;28;20099;-52
2022/05/07 04:52:33;;;;;;;7.00;4.38;;;;;;;;;;5054427;28;20029;-47
2022/05/07 04:55:00;;;;;;;5.32;3.45;;;;;;;;;;5072735;28;20020;-48
2022/05/07 04:57:26;;;;;;;8.10;4.82;;;;;;;;;;5072181;28;20041;-48
2022/05/07 04:59:52;;;;;;;8.32;3.80;;;;;;;;;;5072702;28;20035;-48
2022/05/07 05:02:18;;;;;;;13.90;4.07;;;;;;;;;;5071990;28;20021;-50
2022/05/07 05:04:43;;;;;;;4.13;2.67;;;;;;;;;;5072623;28;20035;-49
2022/05/07 05:07:09;;;;;;;3.00;2.70;;;;;;;;;;5072568;28;20365;-48
2022/05/07 05:09:34;;;;;;;3.65;3.13;;;;;;;;;;5072498;28;20025;-49
2022/05/07 05:12:00;;;;;;;7.00;5.00;;;;;;;;;;5072058;28;20036;-48
2022/05/07 05:17:09;;;;;;;5.43;4.30;;;;;;;;;;5072321;28;20028;-54
2022/05/07 05:19:35;;;;;;;6.32;3.75;;;;;;;;;;5054567;28;20020;-48
2022/05/07 05:22:01;;;;;;;3.35;2.70;;;;;;;;;;5072187;28;20052;-49
2022/05/07 05:24:26;;;;;;;3.33;3.03;;;;;;;;;;5072430;28;20031;-49
2022/05/07 05:26:51;;;;;;;7.93;5.05;;;;;;;;;;5072120;28;20025;-49
2022/05/07 05:29:17;;;;;;;7.03;3.47;;;;;;;;;;5072057;28;20039;-49
2022/05/07 05:31:42;;;;;;;5.93;3.40;;;;;;;;;;5072313;28;20024;-53
2022/05/07 05:34:08;;;;;;;7.75;5.22;;;;;;;;;;5071982;28;20445;-54
2022/05/07 05:36:33;;;;;;;6.43;4.65;;;;;;;;;;5071958;28;20074;-49
2022/05/07 05:38:59;;;;;;;6.90;4.93;;;;;;;;;;5072026;28;20029;-48
2022/05/07 05:41:25;;;;;;;8.40;4.53;;;;;;;;;;5054183;28;20517;-49
2022/05/07 05:43:50;;;;;;;8.18;4.38;;;;;;;;;;5072267;28;20027;-50
2022/05/07 05:46:16;;;;;;;8.43;4.20;;;;;;;;;;5072209;28;20025;-51
2022/05/07 05:48:41;;;;;;;7.78;3.15;;;;;;;;;;5071958;28;20052;-50
2022/05/07 05:51:07;;;;;;;4.15;3.38;;;;;;;;;;5072106;28;20456;-48
2022/05/07 05:53:33;;;;;;;4.75;3.65;;;;;;;;;;5072135;28;20031;-48
2022/05/07 05:56:00;;;;;;;8.10;3.72;;;;;;;;;;5054242;28;20379;-48
2022/05/07 05:58:33;;;;;;;6.60;3.83;;;;;;;;;;5054046;28;20434;-48
2022/05/07 06:00:59;;;;;;;6.32;3.75;;;;;;;;;;5072094;28;20577;-48
2022/05/07 06:03:25;;;;;;;4.95;2.85;;;;;;;;;;5071800;28;20020;-48
2022/05/07 06:05:51;;;;;;;6.28;3.65;;;;;;;;;;5071971;28;20039;-48
2022/05/07 06:08:16;;;;;;;2.88;2.58;;;;;;;;;;5071965;28;20021;-50
2022/05/07 06:10:41;;;;;;;4.82;3.10;;;;;;;;;;5072001;28;20460;-49
2022/05/07 06:13:07;;;;;;;5.18;3.45;;;;;;;;;;5072010;28;20488;-48
2022/05/07 06:15:32;;;;;;;6.38;4.22;;;;;;;;;;5075578;28;20107;-53
2022/05/07 06:17:58;;;;;;;12.30;4.63;;;;;;;;;;5075217;28;20029;-50
2022/05/07 06:20:23;;;;;;;2.90;2.53;;;;;;;;;;5075059;28;20036;-51
2022/05/07 06:22:49;;;;;;;4.38;2.90;;;;;;;;;;5075233;28;20472;-48
2022/05/07 06:28:01;;;;;;;4.13;2.72;;;;;;;;;;5075434;28;20380;-48
2022/05/07 06:30:26;;;;;;;5.95;3.50;;;;;;;;;;5074963;28;20029;-49
2022/05/07 06:32:52;;;;;;;4.57;3.75;;;;;;;;;;5074942;28;20081;-48
2022/05/07 06:35:17;;;;;;;8.48;4.47;;;;;;;;;;5074948;28;20036;-49
2022/05/07 06:37:48;;;;;;;3.28;2.63;;;;;;;;;;5074972;28;20461;-48
2022/05/07 06:40:14;;;;;;;8.52;2.72;;;;;;;;;;5075165;28;20036;-49
2022/05/07 06:42:40;;;;;;;6.35;3.45;;;;;;;;;;5074787;28;20066;-48
2022/05/07 06:45:06;;;;;;;3.92;3.03;;;;;;;;;;5074681;28;20060;-48
2022/05/07 06:47:31;;;;;;;5.97;3.45;;;;;;;;;;5075009;28;20025;-49
2022/05/07 06:49:57;;;;;;;4.50;2.25;;;;;;;;;;5074879;28;20020;-50
2022/05/07 06:52:22;;;;;;;3.90;2.97;;;;;;;;;;5074893;28;20059;-49
2022/05/07 06:54:48;;;;;;;3.85;2.47;;;;;;;;;;5074644;28;20032;-49
2022/05/07 06:57:13;;;;;;;5.38;3.67;;;;;;;;;;5074161;28;20558;-49
2022/05/07 06:59:38;;;;;;;5.57;2.70;;;;;;;;;;5074584;28;20035;-61
2022/05/07 07:02:04;;;;;;;4.35;3.40;;;;;;;;;;5074347;28;20048;-48
2022/05/07 07:04:30;;;;;;;3.15;2.75;;;;;;;;;;5074230;28;20029;-49
2022/05/07 07:06:56;;;;;;;5.03;2.60;;;;;;;;;;5074276;28;20048;-48
2022/05/07 07:09:21;;;;;;;5.07;2.53;;;;;;;;;;5074472;28;20465;-49
2022/05/07 07:11:47;;;;;;;3.97;3.20;;;;;;;;;;5074450;28;20107;-49
2022/05/07 07:14:13;;;;;;;4.47;2.72;;;;;;;;;;5074070;28;20056;-48
2022/05/07 07:16:38;;;;;;;6.20;3.30;;;;;;;;;;5074042;28;20048;-52
2022/05/07 07:19:04;;;;;;;8.40;3.33;;;;;;;;;;5074266;28;20107;-50
2022/05/07 07:21:30;;;;;;;6.40;3.42;;;;;;;;;;5073969;28;20108;-48
2022/05/07 07:23:55;;;;;;;4.22;3.00;;;;;;;;;;5073990;28;20027;-50
2022/05/07 07:26:21;;;;;;;6.18;3.40;;;;;;;;;;5074165;28;20066;-49
2022/05/07 07:28:47;;;;;;;8.27;3.90;;;;;;;;;;5073871;28;20039;-48
2022/05/07 07:31:13;;;;;;;5.90;3.35;;;;;;;;;;5074048;28;20032;-52
2022/05/07 07:33:39;;;;;;;3.63;2.70;;;;;;;;;;5074089;28;20025;-56
2022/05/07 07:36:09;;;;;;;7.03;3.13;;;;;;;;;;5074085;28;20029;-50
2022/05/07 07:38:36;;;;;;;4.70;3.45;;;;;;;;;;5074323;28;20029;-56
2022/05/07 07:41:02;;;;;;;3.50;2.10;;;;;;;;;;5073700;28;20031;-56
2022/05/07 07:43:31;;;;;;;14.20;3.58;;;;;;;;;;5073858;28;20028;-54
2022/05/07 07:48:42;;;;;;;7.28;3.97;;;;;;;;;;5073827;28;20124;-57
2022/05/07 07:51:08;;;;;;;5.93;2.97;;;;;;;;;;5073585;28;20024;-53
2022/05/07 07:53:34;;;;;;;7.93;2.05;;;;;;;;;;5073658;28;20062;-49
2022/05/07 07:56:00;;;;;;;4.55;3.08;;;;;;;;;;5055461;28;20391;-52
2022/05/07 07:58:25;;;;;;;3.03;2.25;;;;;;;;;;5073183;28;20049;-52
2022/05/07 08:00:51;;;;;;;7.72;3.17;;;;;;;;;;5073512;28;20028;-55
2022/05/07 08:03:18;;;;;;;3.72;2.25;;;;;;;;;;5073520;28;20039;-51
2022/05/07 08:05:49;;;;;;;9.23;2.55;;;;;;;;;;5073427;28;20020;-51
2022/05/07 08:13:48;;;;;;;6.30;2.55;;;;;;;;;;5073420;28;20071;-55
2022/05/07 08:16:17;;;;;;;4.00;2.00;;;;;;;;;;5073220;28;20024;-53
2022/05/07 08:18:43;;;;;;;2.17;1.98;;;;;;;;;;5073264;28;20028;-52
2022/05/07 08:21:09;;;;;;;7.45;2.90;;;;;;;;;;5073122;28;20082;-56
2022/05/07 08:23:36;;;;;;;4.68;2.38;;;;;;;;;;5073071;28;20024;-55
2022/05/07 08:26:04;;;;;;;2.42;2.22;;;;;;;;;;5072847;28;20028;-52
2022/05/07 08:28:30;;;;;;;5.60;3.03;;;;;;;;;;5072887;28;20029;-56
2022/05/07 08:30:56;;;;;;;5.18;3.03;;;;;;;;;;5072758;28;20028;-54
2022/05/07 08:33:22;;;;;;;4.78;3.10;;;;;;;;;;5072602;28;20024;-51
2022/05/07 08:35:48;;;;;;;5.38;2.53;;;;;;;;;;5072167;28;20035;-51
2022/05/07 08:38:13;;;;;;;4.47;2.50;;;;;;;;;;5072540;28;20190;-54
2022/05/07 08:40:42;;;;;;;8.60;3.00;;;;;;;;;;5072580;28;20041;-52
2022/05/07 08:43:08;;;;;;;6.70;3.08;;;;;;;;;;5054535;28;20032;-56
2022/05/07 08:45:35;;;;;;;3.08;2.78;;;;;;;;;;5072683;28;20044;-62
2022/05/07 08:48:01;;;;;;;5.60;2.92;;;;;;;;;;5072594;28;20138;-57
2022/05/07 08:50:26;;;;;;;8.00;3.00;;;;;;;;;;5072506;28;20116;-55
2022/05/07 08:52:55;;;;;;;3.65;2.63;;;;;;;;;;5072594;28;20513;-56
2022/05/07 08:55:21;;;;;;;3.38;2.47;;;;;;;;;;5072580;28;20033;-53
2022/05/07 08:57:49;;;;;;;5.45;2.70;;;;;;;;;;5072328;28;20084;-55
2022/05/07 09:00:17;;;;;;;3.58;2.60;;;;;;;;;;5072129;28;20450;-55
2022/05/07 09:02:51;;;;;;;3.40;2.55;;;;;;;;;;5072634;28;20052;-57
2022/05/07 09:05:18;;;;;;;4.75;2.40;;;;;;;;;;5072354;28;20028;-54
2022/05/07 09:07:58;;;;;;;5.05;2.90;;;;;;;;;;5072548;28;20025;-54
2022/05/07 09:10:26;;;;;;;10.90;2.88;;;;;;;;;;5072496;28;20086;-57
2022/05/07 09:12:52;;;;;;;4.72;2.83;;;;;;;;;;5072552;28;20024;-55
2022/05/07 09:15:17;;;;;;;6.07;3.17;;;;;;;;;;5072214;28;20080;-53
2022/05/07 09:17:47;;;;;;;6.00;2.40;;;;;;;;;;5072210;28;20034;-53
2022/05/07 09:20:18;;;;;;;5.67;3.10;;;;;;;;;;5072485;28;20355;-53
2022/05/07 09:22:53;;;;;;;3.15;2.50;;;;;;;;;;5072159;28;20040;-57
2022/05/07 09:25:21;;;;;;;5.05;2.47;;;;;;;;;;5071087;28;20105;-56
2022/05/07 09:27:47;;;;;;;8.02;2.60;;;;;;;;;;5072026;28;20425;-51
2022/05/07 09:30:13;;;;;;;5.85;2.78;;;;;;;;;;5072218;28;20032;-49
2022/05/07 09:32:38;;;;;;;4.97;2.90;;;;;;;;;;5071468;28;20044;-53
2022/05/07 09:38:01;;;;;;;4.25;2.50;;;;;;;;;;5070413;28;20116;-50
2022/05/07 09:40:28;;;;;;;6.88;3.13;;;;;;;;;;5052440;28;20050;-60
2022/05/07 09:42:57;;;;;;;9.27;2.78;;;;;;;;;;5060477;28;20036;-53
2022/05/07 09:45:30;;;;;;;5.13;2.40;;;;;;;;;;5061629;28;20032;-53
2022/05/07 09:47:55;;;;;;;5.07;2.55;;;;;;;;;;5063445;28;20021;-55
2022/05/07 09:50:43;;;;;;;4.07;2.63;;;;;;;;;;5063926;28;20029;-49
2022/05/07 09:58:43;;;;;;;5.00;2.75;;;;;;;;;;5070532;28;20051;-52
2022/05/07 10:01:20;;;;;;;4.18;2.67;;;;;;;;;;5075673;28;20028;-47
2022/05/07 10:04:06;;;;;;;5.43;3.00;;;;;;;;;;5074471;28;20023;-58
2022/05/07 10:06:48;;;;;;;6.20;2.75;;;;;;;;;;5075601;28;20371;-52
2022/05/07 10:09:51;;;;;;;2.80;2.40;;;;;;;;;;5075715;28;20025;-53
2022/05/07 10:12:19;;;;;;;3.38;2.72;;;;;;;;;;5075066;28;20025;-55
2022/05/07 10:14:45;;;;;;;3.88;2.47;;;;;;;;;;5075676;28;20028;-57
2022/05/07 10:17:12;;;;;;;3.33;2.00;;;;;;;;;;5057327;28;20524;-54
2022/05/07 10:19:43;;;;;;;4.22;2.63;;;;;;;;;;5075223;28;20484;-56
2022/05/07 10:22:16;;;;;;;4.30;2.45;;;;;;;;;;5075136;28;20522;-55
2022/05/07 10:24:42;;;;;;;7.20;2.95;;;;;;;;;;5075153;28;20483;-58
2022/05/07 10:27:21;;;;;;;3.97;2.60;;;;;;;;;;5075309;28;20058;-57
2022/05/07 10:29:47;;;;;;;3.72;2.38;;;;;;;;;;5075340;28;20052;-53
2022/05/07 10:32:18;;;;;;;4.03;2.60;;;;;;;;;;5075339;28;20075;-54
2022/05/07 10:34:52;;;;;;;8.18;2.90;;;;;;;;;;5075289;28;20422;-56
2022/05/07 10:37:18;;;;;;;4.93;2.88;;;;;;;;;;5075247;28;20078;-52
2022/05/07 10:39:55;;;;;;;9.38;3.15;;;;;;;;;;5075197;28;20055;-52
2022/05/07 10:42:22;;;;;;;5.60;2.80;;;;;;;;;;5056856;28;20430;-57
2022/05/07 10:44:48;;;;;;;3.00;2.60;;;;;;;;;;5074845;28;20040;-51
2022/05/07 10:47:18;;;;;;;3.38;3.05;;;;;;;;;;5071827;28;20025;-49
2022/05/07 10:50:00;;;;;;;5.40;3.20;;;;;;;;;;5075030;28;20071;-55
2022/05/07 10:52:33;;;;;;;3.63;2.45;;;;;;;;;;5073500;28;20025;-49
2022/05/07 10:55:09;;;;;;;5.43;3.17;;;;;;;;;;5053143;28;20409;-52
2022/05/07 10:57:45;;;;;;;3.30;2.70;;;;;;;;;;5056760;28;20040;-54
2022/05/07 11:00:21;;;;;;;7.65;2.97;;;;;;;;;;5053838;28;20112;-51
2022/05/07 11:02:48;;;;;;;3.65;2.50;;;;;;;;;;5053343;28;20083;-47
2022/05/07 11:05:15;;;;;;;2.40;1.98;;;;;;;;;;5053640;28;20412;-51
2022/05/07 11:07:42;;;;;;;3.90;3.03;;;;;;;;;;5054525;28;20037;-54
2022/05/07 11:10:09;;;;;;;5.90;3.42;;;;;;;;;;5054210;28;20044;-54
2022/05/07 11:12:35;;;;;;;5.18;3.15;;;;;;;;;;5054349;28;20078;-55
2022/05/07 11:15:04;;;;;;;4.95;2.85;;;;;;;;;;5054081;28;20056;-55
2022/05/07 11:17:35;;;;;;;7.65;2.63;;;;;;;;;;5054398;28;20025;-53
2022/05/07 11:20:01;;;;;;;4.00;3.05;;;;;;;;;;5054144;28;20029;-55
2022/05/07 11:22:30;;;;;;;3.15;2.50;;;;;;;;;;5054145;28;20443;-53
2022/05/07 11:25:00;;;;;;;3.55;2.70;;;;;;;;;;5054415;28;20036;-50
2022/05/07 11:27:29;;;;;;;5.45;3.58;;;;;;;;;;5054351;28;20025;-56
2022/05/07 11:29:56;;;;;;;4.55;3.00;;;;;;;;;;5053986;28;20039;-55
2022/05/07 11:32:21;;;;;;;3.22;2.53;;;;;;;;;;5054106;28;20037;-56
2022/05/07 11:34:47;;;;;;;5.15;3.05;;;;;;;;;;5054176;28;20533;-56
2022/05/07 11:37:17;;;;;;;5.88;2.50;;;;;;;;;;5054133;28;20013;-50
2022/05/07 11:39:54;;;;;;;4.47;2.85;;;;;;;;;;5053773;28;20037;-49
2022/05/07 11:42:28;;;;;;;3.58;3.00;;;;;;;;;;5054077;28;20051;-55
2022/05/07 11:47:49;;;;;;;3.40;3.10;;;;;;;;;;5053740;28;20128;-56
2022/05/07 11:50:20;;;;;;;5.85;1.70;;;;;;;;;;5053916;28;20260;-56
2022/05/07 11:52:46;;;;;;;6.53;2.65;;;;;;;;;;5053772;28;20111;-54
2022/05/07 11:55:11;;;;;;;5.25;3.08;;;;;;;;;;5053535;28;20434;-55
2022/05/07 11:57:37;;;;;;;8.20;3.00;;;;;;;;;;5053236;28;20041;-53
2022/05/07 12:00:19;;;;;;;3.13;2.88;;;;;;;;;;5053636;28;20108;-54
2022/05/07 12:02:52;;;;;;;4.93;2.72;;;;;;;;;;5053630;28;20025;-55
2022/05/07 12:05:18;;;;;;;6.07;3.08;;;;;;;;;;5053236;28;20025;-54
2022/05/07 12:07:47;;;;;;;5.18;3.13;;;;;;;;;;5053222;28;20491;-54
2022/05/07 12:10:12;;;;;;;14.35;3.25;;;;;;;;;;5053312;28;20025;-55
2022/05/07 12:12:38;;;;;;;5.07;2.33;;;;;;;;;;5052702;28;20031;-56
2022/05/07 12:15:05;;;;;;;2.40;2.00;;;;;;;;;;5053112;28;20469;-54
2022/05/07 12:20:16;;;;;;;2.53;2.33;;;;;;;;;;5052860;28;20040;-55
2022/05/07 12:30:53;;;;;;;4.80;2.20;;;;;;;;;;5052933;28;20032;-51
2022/05/07 12:33:19;;;;;;;3.53;2.97;;;;;;;;;;5052752;28;20036;-54
2022/05/07 12:35:45;;;;;;;4.47;2.60;;;;;;;;;;5053052;28;20090;-55
2022/05/07 12:38:11;;;;;;;2.20;2.00;;;;;;;;;;5052633;28;20032;-55
2022/05/07 12:40:36;;;;;;;4.45;2.45;;;;;;;;;;5052617;28;20025;-54
2022/05/07 12:43:01;;;;;;;3.90;2.47;;;;;;;;;;5052605;28;20029;-55
2022/05/07 12:45:27;;;;;;;4.38;2.80;;;;;;;;;;5052622;28;20021;-51
2022/05/07 12:47:53;;;;;;;3.15;2.58;;;;;;;;;;5052551;28;20029;-54
2022/05/07 12:50:18;;;;;;;5.85;2.30;;;;;;;;;;5035191;28;20040;-52
2022/05/07 12:52:44;;;;;;;4.82;2.28;;;;;;;;;;5052965;28;20036;-55
2022/05/07 12:55:09;;;;;;;4.28;2.45;;;;;;;;;;5052408;28;20491;-54
2022/05/07 12:57:35;;;;;;;3.38;2.30;;;;;;;;;;5052352;28;20043;-56
2022/05/07 13:00:00;;;;;;;7.53;2.80;;;;;;;;;;5052361;28;20036;-51
2022/05/07 13:02:25;;;;;;;4.70;2.58;;;;;;;;;;5052631;28;20100;-54
2022/05/07 13:04:51;;;;;;;11.30;2.50;;;;;;;;;;5052644;28;20519;-55
2022/05/07 13:07:16;;;;;;;4.50;3.00;;;;;;;;;;5034560;28;20067;-56
2022/05/07 13:09:42;;;;;;;6.18;2.50;;;;;;;;;;5052316;28;20459;-56
2022/05/07 13:12:10;;;;;;;7.32;2.55;;;;;;;;;;5052472;28;20045;-55
2022/05/07 13:14:36;;;;;;;5.65;2.50;;;;;;;;;;5051752;28;20043;-50
2022/05/07 13:17:02;;;;;;;3.83;2.47;;;;;;;;;;5050873;28;20040;-57
2022/05/07 13:19:27;;;;;;;4.50;3.05;;;;;;;;;;5047488;28;20103;-53
2022/05/07 13:21:54;;;;;;;3.53;2.30;;;;;;;;;;5071652;28;20044;-55
2022/05/07 13:24:19;;;;;;;2.05;1.75;;;;;;;;;;5076230;28;20025;-55
2022/05/07 13:26:45;;;;;;;4.55;2.75;;;;;;;;;;5075053;28;20028;-55
2022/05/07 13:29:11;;;;;;;3.65;2.40;;;;;;;;;;5073591;28;20086;-53
2022/05/07 13:31:37;;;;;;;3.42;2.53;;;;;;;;;;5074599;28;20024;-51
2022/05/07 13:34:04;;;;;;;2.83;2.08;;;;;;;;;;5076101;28;20525;-49
2022/05/07 13:36:30;;;;;;;2.92;2.30;;;;;;;;;;5076133;28;20113;-53
2022/05/07 13:38:56;;;;;;;4.40;2.60;;;;;;;;;;5076055;28;20036;-51
2022/05/07 13:41:22;;;;;;;4.60;2.25;;;;;;;;;;5058030;28;20029;-55
2022/05/07 13:43:48;;;;;;;6.43;2.60;;;;;;;;;;5075868;28;20032;-50
2022/05/07 13:46:13;;;;;;;2.85;2.50;;;;;;;;;;5075849;28;20066;-53
2022/05/07 13:48:39;;;;;;;6.18;2.67;;;;;;;;;;5076200;28;20060;-49
2022/05/07 13:51:07;;;;;;;8.02;2.30;;;;;;;;;;5075983;28;20043;-50
2022/05/07 13:53:33;;;;;;;4.90;2.35;;;;;;;;;;5076062;28;20034;-53
2022/05/07 13:55:59;;;;;;;3.97;2.33;;;;;;;;;;5075974;28;20033;-50
2022/05/07 13:58:25;;;;;;;3.45;2.15;;;;;;;;;;5075452;28;20075;-49
2022/05/07 14:00:51;;;;;;;2.30;2.10;;;;;;;;;;5075426;28;20029;-53
2022/05/07 14:03:17;;;;;;;4.78;2.25;;;;;;;;;;5075459;28;20040;-54
2022/05/07 14:05:42;;;;;;;4.13;2.30;;;;;;;;;;5075291;28;20032;-49
2022/05/07 14:08:08;;;;;;;4.10;1.88;;;;;;;;;;5075714;28;20484;-51
2022/05/07 14:10:34;;;;;;;3.58;2.15;;;;;;;;;;5068875;28;20012;-52
2022/05/07 14:13:00;;;;;;;2.53;2.10;;;;;;;;;;5063195;28;20033;-50
2022/05/07 14:15:25;;;;;;;2.30;2.10;;;;;;;;;;5064283;28;20024;-52
2022/05/07 14:17:51;;;;;;;2.10;2.00;;;;;;;;;;5064919;28;20021;-50
2022/05/07 14:20:16;;;;;;;2.47;2.10;;;;;;;;;;5063693;28;20036;-48
2022/05/07 14:22:42;;;;;;;5.47;2.10;;;;;;;;;;5063404;28;20035;-52
2022/05/07 14:25:08;;;;;;;3.40;1.75;;;;;;;;;;5046710;28;20099;-54
2022/05/07 14:27:35;;;;;;;3.22;2.13;;;;;;;;;;5063023;28;20061;-55
2022/05/07 14:30:02;;;;;;;1.50;1.40;;;;;;;;;;5063734;28;20029;-51
2022/05/07 14:32:28;;;;;;;4.82;2.20;;;;;;;;;;5046681;28;20032;-52
2022/05/07 14:34:53;;;;;;;2.50;2.30;;;;;;;;;;5061855;28;20025;-53
2022/05/07 14:37:19;;;;;;;2.05;1.65;;;;;;;;;;5062294;28;20040;-53
2022/05/07 14:39:44;;;;;;;2.15;1.95;;;;;;;;;;5063352;28;20611;-53
2022/05/07 14:42:10;;;;;;;5.32;2.30;;;;;;;;;;5061313;28;20123;-55
2022/05/07 14:44:36;;;;;;;4.20;2.10;;;;;;;;;;5054299;28;20033;-56
2022/05/07 14:47:02;;;;;;;1.75;1.60;;;;;;;;;;5048262;28;20044;-52
2022/05/07 14:49:27;;;;;;;2.47;2.05;;;;;;;;;;5052353;28;20033;-53
2022/05/07 14:51:53;;;;;;;2.75;2.00;;;;;;;;;;5054299;28;20061;-53
2022/05/07 14:54:19;;;;;;;2.90;1.80;;;;;;;;;;5054844;28;20040;-55
2022/05/07 14:56:45;;;;;;;2.50;1.90;;;;;;;;;;5054598;28;20063;-54
2022/05/07 14:59:10;;;;;;;3.50;2.20;;;;;;;;;;5059338;28;20069;-51
2022/05/07 15:01:37;;;;;;;3.65;2.03;;;;;;;;;;5063131;28;20025;-56
2022/05/07 15:04:03;;;;;;;2.78;2.25;;;;;;;;;;5064443;28;20360;-53
2022/05/07 15:06:28;;;;;;;2.55;2.10;;;;;;;;;;5064119;28;20060;-51
2022/05/07 15:11:40;;;;;;;3.05;1.80;;;;;;;;;;5062198;28;20053;-54
2022/05/07 15:14:06;;;;;;;2.53;2.08;;;;;;;;;;5064522;28;20032;-52
2022/05/07 15:16:31;;;;;;;4.47;1.92;;;;;;;;;;5054753;28;20384;-52
2022/05/07 15:18:57;;;;;;;2.50;2.30;;;;;;;;;;5054369;28;20032;-52
2022/05/07 15:21:25;;;;;;;4.65;2.47;;;;;;;;;;5056980;28;20481;-50
2022/05/07 15:23:54;;;;;;;5.75;2.03;;;;;;;;;;5063808;28;20020;-51
2022/05/07 15:26:20;;;;;;;4.88;1.95;;;;;;;;;;5064413;28;20017;-53
2022/05/07 15:28:48;;;;;;;4.85;1.83;;;;;;;;;;5063043;28;20479;-53
2022/05/07 15:31:14;;;;;;;3.33;2.20;;;;;;;;;;5062891;28;20488;-52